Kezdőlap
METAR-TAF:

METAR-TAF

Repülőterek :

Rush City Regional Airport

Rush City, Minnesota, Amerikai Egyesült Államok

földrajzi szélesség: 45-41-53N, földrajzi hosszúság: 092-57-11W, magasság: 281 m

Jelenlegi meteorológiai megfigyelések

A jelentés 38 perccel ezelõtt készült, 05:35 UTC
Szélcsend
Hőmérséklet 18°C
Páratartalom 88%
Légköri nyomás 1011 hPa
Látótávolság: 16.1 km
Szórványos felhőzet 12000 lábon

METAR: KROS 150535Z AUTO 00000KT 10SM SCT120 18/16 A2986 RMK AO2 T01830156

Idő: 01:13 (06:13 UTC)


TAF: hiányzik

Meteorológiai megfigyelések és előrejelzések több, mint 4000 repülőtéren (METAR és TAF jelentéseket).

A térképen piros és sárga pontok jelzik az elérhető meteorológiai állomásokat.

Mozgassa az egeret a pont fölött, hogy megjelenjen az állomás neve.

Azután kattintson az időjárási megfigyelések és előrejelzések megtekintéséhez.

A térkép megváltoztatása: kattintson a fekete keresztel jelölt zöld gombra ráközelítéshez, a vonallal jelölt zöld gombra távolításhoz, vagy a zöld nyilakra a szomszédos térképek eléréséhez.


METAR-TAF: